Time;durP1;ratioP1;P1;durP2;ratioP2;P2;SDS_P1;SDS_P2;PMS_P1;PMS_P2;Temp;Humidity;BMP_temperature;BMP_pressure;BME280_temperature;BME280_humidity;BME280_pressure;Samples;Min_cycle;Max_cycle;Signal;HPM_P1;HPM_P2
2023/03/16 00:02:21;;;;;;;9.50;4.63;;;;;;;6.94;60.12;95288.44;5096116;28;20158;-65
2023/03/16 00:04:48;;;;;;;10.63;4.07;;;;;;;6.91;60.13;95290.31;5096071;28;20490;-65
2023/03/16 00:07:16;;;;;;;4.90;3.78;;;;;;;6.70;59.92;95292.91;5095873;28;20044;-65
2023/03/16 00:09:45;;;;;;;13.93;4.75;;;;;;;6.53;60.58;95294.47;5096028;28;20044;-65
2023/03/16 00:12:15;;;;;;;9.40;4.57;;;;;;;6.31;61.23;95284.97;5095798;28;20470;-64
2023/03/16 00:14:43;;;;;;;8.93;4.45;;;;;;;6.24;61.34;95288.75;5095879;28;20128;-64
2023/03/16 00:17:17;;;;;;;6.28;3.85;;;;;;;6.11;61.71;95284.94;5095723;28;20580;-63
2023/03/16 00:19:46;;;;;;;7.22;3.90;;;;;;;5.94;62.31;95289.84;5095712;28;20040;-64
2023/03/16 00:22:15;;;;;;;7.72;4.35;;;;;;;5.78;62.67;95288.78;5095712;28;20044;-64
2023/03/16 00:24:44;;;;;;;7.15;4.13;;;;;;;5.86;63.10;95286.72;5095600;28;20052;-64
2023/03/16 00:27:13;;;;;;;11.13;4.70;;;;;;;5.86;63.11;95288.47;5095487;28;20490;-63
2023/03/16 00:29:46;;;;;;;9.48;4.38;;;;;;;5.84;63.64;95293.72;5095365;28;20052;-64
2023/03/16 00:32:15;;;;;;;11.45;4.63;;;;;;;5.67;63.58;95299.59;5095546;28;20131;-63
2023/03/16 00:34:43;;;;;;;9.27;2.97;;;;;;;5.58;63.76;95298.19;5095386;28;20044;-64
2023/03/16 00:37:12;;;;;;;5.28;3.78;;;;;;;5.60;63.77;95296.34;5095383;28;20054;-64
2023/03/16 00:39:40;;;;;;;7.50;4.13;;;;;;;5.72;64.49;95297.63;5095276;28;20435;-64
2023/03/16 00:42:10;;;;;;;9.77;4.90;;;;;;;5.78;64.70;95302.59;5095279;28;20040;-64
2023/03/16 00:44:37;;;;;;;7.80;4.55;;;;;;;5.80;64.83;95298.19;5095334;28;20048;-64
2023/03/16 00:47:06;;;;;;;9.32;4.75;;;;;;;5.85;65.02;95294.56;5095297;28;20044;-63
2023/03/16 00:49:33;;;;;;;7.38;5.35;;;;;;;5.90;64.32;95290.06;5094904;28;20506;-64
2023/03/16 00:52:01;;;;;;;8.73;4.88;;;;;;;6.03;64.66;95293.00;5095250;28;20136;-64
2023/03/16 00:54:29;;;;;;;9.52;4.95;;;;;;;6.13;64.26;95285.72;5095363;28;20048;-64
2023/03/16 00:56:56;;;;;;;8.10;4.82;;;;;;;6.21;64.64;95291.47;5095115;28;20048;-64
2023/03/16 00:59:25;;;;;;;8.68;4.53;;;;;;;6.25;64.35;95293.03;5095000;28;20105;-64
2023/03/16 01:01:52;;;;;;;9.80;5.43;;;;;;;6.29;63.44;95291.16;5094926;28;20055;-64
2023/03/16 01:04:20;;;;;;;9.73;5.13;;;;;;;6.29;63.61;95291.16;5094659;28;20071;-65
2023/03/16 01:06:47;;;;;;;9.70;4.97;;;;;;;6.35;63.38;95295.25;5094835;28;20094;-64
2023/03/16 01:09:15;;;;;;;10.35;5.47;;;;;;;6.35;62.52;95296.06;5094607;28;20044;-64
2023/03/16 01:11:43;;;;;;;8.25;5.22;;;;;;;6.47;62.55;95297.31;5094656;28;20083;-65
2023/03/16 01:14:11;;;;;;;7.95;5.00;;;;;;;6.59;63.33;95310.72;5094594;28;20044;-64
2023/03/16 01:16:39;;;;;;;6.75;4.28;;;;;;;6.64;62.52;95314.81;5094691;28;20079;-62
2023/03/16 01:19:07;;;;;;;8.95;4.55;;;;;;;6.67;61.93;95317.28;5094755;28;20075;-64
2023/03/16 01:21:37;;;;;;;9.15;5.13;;;;;;;6.67;61.47;95316.44;5094501;28;20071;-65
2023/03/16 01:24:04;;;;;;;6.63;4.97;;;;;;;6.68;61.76;95320.72;5094438;28;20052;-64
2023/03/16 01:26:31;;;;;;;10.90;5.35;;;;;;;6.70;61.47;95319.75;5094436;28;20052;-64
2023/03/16 01:28:59;;;;;;;7.28;4.85;;;;;;;6.76;62.27;95320.41;5094378;28;20050;-64
2023/03/16 01:31:28;;;;;;;8.07;5.40;;;;;;;6.81;62.43;95324.47;5094253;28;20048;-65
2023/03/16 01:33:56;;;;;;;13.88;5.00;;;;;;;6.83;61.77;95321.81;5094320;28;20048;-63
2023/03/16 01:36:23;;;;;;;8.02;4.97;;;;;;;6.79;61.49;95322.88;5094285;28;20584;-62
2023/03/16 01:38:51;;;;;;;8.20;5.65;;;;;;;6.79;62.01;95328.06;5094318;28;20078;-64
2023/03/16 01:41:18;;;;;;;12.50;5.70;;;;;;;6.72;61.66;95331.84;5094091;28;20052;-64
2023/03/16 01:43:46;;;;;;;13.48;5.53;;;;;;;6.75;61.29;95323.91;5094110;28;20054;-64
2023/03/16 01:46:21;;;;;;;10.68;5.70;;;;;;;6.86;60.75;95313.06;5093861;28;20062;-63
2023/03/16 01:48:54;;;;;;;8.82;5.18;;;;;;;6.92;60.47;95324.03;5093996;28;20051;-63
2023/03/16 01:51:25;;;;;;;11.27;6.40;;;;;;;6.98;60.39;95314.28;5093724;28;20055;-63
2023/03/16 01:53:57;;;;;;;9.90;5.95;;;;;;;7.02;60.56;95314.09;5093858;28;20051;-64
2023/03/16 01:56:27;;;;;;;7.68;5.45;;;;;;;7.06;61.17;95314.78;5093837;28;20097;-62
2023/03/16 01:58:58;;;;;;;9.45;5.22;;;;;;;7.08;61.31;95321.59;5093818;28;20072;-63
2023/03/16 02:01:27;;;;;;;8.05;5.43;;;;;;;7.04;61.04;95333.06;5093786;28;20482;-63
2023/03/16 02:04:00;;;;;;;10.48;5.57;;;;;;;7.03;61.92;95330.53;5093789;28;20067;-65
2023/03/16 02:06:29;;;;;;;11.98;5.30;;;;;;;7.00;61.93;95331.50;5093711;28;20044;-64
2023/03/16 02:08:57;;;;;;;9.95;5.30;;;;;;;6.99;61.79;95340.22;5093757;28;20048;-65
2023/03/16 02:11:25;;;;;;;10.23;4.95;;;;;;;6.98;61.78;95327.28;5093518;28;20099;-65
2023/03/16 02:13:52;;;;;;;19.67;14.63;;;;;;;6.95;61.22;95333.44;5093559;28;20131;-64
2023/03/16 02:16:21;;;;;;;11.18;6.55;;;;;;;6.97;61.26;95330.78;5092937;28;20577;-63
2023/03/16 02:18:50;;;;;;;10.15;6.45;;;;;;;6.99;61.81;95341.97;5093564;28;20048;-64
2023/03/16 02:21:28;;;;;;;12.20;6.18;;;;;;;6.92;61.94;95339.63;5093552;28;20048;-64
2023/03/16 02:23:56;;;;;;;10.73;5.82;;;;;;;6.97;62.42;95342.03;5093421;28;20116;-64
2023/03/16 02:26:33;;;;;;;11.25;7.75;;;;;;;6.90;62.08;95341.47;5093387;28;20089;-65
2023/03/16 02:29:14;;;;;;;13.07;5.82;;;;;;;6.97;61.15;95349.84;5093378;28;20048;-64
2023/03/16 02:31:43;;;;;;;6.88;5.32;;;;;;;6.94;60.24;95347.38;5093299;28;20477;-63
2023/03/16 02:34:12;;;;;;;11.95;6.47;;;;;;;6.99;60.63;95336.78;5093311;28;20120;-63
2023/03/16 02:36:41;;;;;;;9.48;5.20;;;;;;;7.08;60.65;95345.00;5093288;28;20044;-65
2023/03/16 02:39:08;;;;;;;7.97;5.20;;;;;;;7.14;60.99;95348.28;5093246;28;20070;-63
2023/03/16 02:41:35;;;;;;;9.63;5.00;;;;;;;7.07;60.19;95353.72;5093205;28;20044;-65
2023/03/16 02:44:09;;;;;;;14.45;5.63;;;;;;;7.08;60.73;95363.22;5093155;28;20471;-64
2023/03/16 02:46:37;;;;;;;13.52;6.47;;;;;;;7.08;61.36;95357.19;5093141;28;20048;-65
2023/03/16 02:49:12;;;;;;;12.10;6.43;;;;;;;7.10;61.44;95360.56;5092670;28;20050;-64
2023/03/16 02:51:40;;;;;;;12.75;7.57;;;;;;;7.07;61.95;95360.69;5093044;28;20489;-64
2023/03/16 02:54:08;;;;;;;10.18;8.25;;;;;;;7.08;61.78;95357.19;5093123;28;20044;-63
2023/03/16 02:56:35;;;;;;;10.38;7.07;;;;;;;7.08;61.95;95357.19;5092996;28;20048;-63
2023/03/16 02:59:02;;;;;;;9.90;7.20;;;;;;;7.17;62.55;95361.16;5092996;28;20051;-65
2023/03/16 03:01:30;;;;;;;15.77;7.35;;;;;;;7.21;62.27;95362.69;5092984;28;20052;-64
2023/03/16 03:03:57;;;;;;;13.75;7.68;;;;;;;7.29;62.00;95363.19;5092863;28;20044;-64
2023/03/16 03:06:26;;;;;;;11.50;7.88;;;;;;;7.31;61.97;95369.19;5092836;28;20516;-65
2023/03/16 03:08:53;;;;;;;10.55;7.50;;;;;;;7.34;62.45;95368.19;5092844;28;20101;-65
2023/03/16 03:11:20;;;;;;;11.40;7.82;;;;;;;7.26;62.30;95352.94;5092943;28;20130;-63
2023/03/16 03:13:47;;;;;;;12.02;8.60;;;;;;;7.38;62.01;95361.97;5092999;28;20136;-64
2023/03/16 03:16:15;;;;;;;10.57;7.88;;;;;;;7.39;62.17;95368.84;5092998;28;20517;-64
2023/03/16 03:18:42;;;;;;;10.73;7.75;;;;;;;7.40;62.62;95375.75;5092849;28;20044;-64
2023/03/16 03:21:09;;;;;;;11.75;7.90;;;;;;;7.40;62.58;95375.75;5092824;28;20090;-62
2023/03/16 03:23:38;;;;;;;17.73;7.75;;;;;;;7.38;62.77;95374.97;5092706;28;20484;-64
2023/03/16 03:26:06;;;;;;;12.02;7.40;;;;;;;7.38;62.80;95364.56;5092744;28;20048;-63
2023/03/16 03:28:34;;;;;;;11.85;7.38;;;;;;;7.44;62.59;95369.47;5093322;28;20055;-62
2023/03/16 03:31:01;;;;;;;10.68;7.45;;;;;;;7.46;62.79;95372.88;5096677;28;20048;-64
2023/03/16 03:33:29;;;;;;;11.93;7.63;;;;;;;7.46;62.66;95380.69;5096650;28;20044;-63
2023/03/16 03:35:57;;;;;;;12.68;7.22;;;;;;;7.48;62.91;95383.22;5096565;28;20047;-65
2023/03/16 03:38:25;;;;;;;10.20;7.45;;;;;;;7.48;62.87;95382.34;5096690;28;20054;-65
2023/03/16 03:40:58;;;;;;;11.40;7.60;;;;;;;7.41;63.05;95379.19;5096668;28;20040;-65
2023/03/16 03:43:25;;;;;;;9.55;7.65;;;;;;;7.40;63.58;95386.16;5096410;28;20509;-62
2023/03/16 03:45:57;;;;;;;10.52;7.45;;;;;;;7.33;63.47;95384.72;5096556;28;20047;-63
2023/03/16 03:48:24;;;;;;;9.05;7.55;;;;;;;7.33;63.89;95388.19;5096446;28;20063;-64
2023/03/16 03:50:52;;;;;;;10.68;7.78;;;;;;;7.25;64.11;95382.47;5096112;28;20056;-64
2023/03/16 03:53:20;;;;;;;12.07;8.05;;;;;;;7.20;64.08;95385.25;5096233;28;20102;-62
2023/03/16 03:55:49;;;;;;;12.45;7.47;;;;;;;7.17;64.66;95392.34;5096225;28;20397;-62
2023/03/16 03:58:18;;;;;;;15.05;7.68;;;;;;;7.07;65.15;95397.09;5096156;28;20082;-65
2023/03/16 04:00:48;;;;;;;11.73;7.43;;;;;;;7.05;64.96;95404.94;5096125;28;20119;-63
2023/03/16 04:03:16;;;;;;;10.23;7.70;;;;;;;7.01;65.14;95405.16;5096096;28;20044;-64
2023/03/16 04:05:43;;;;;;;14.32;7.18;;;;;;;6.95;65.28;95414.03;5096065;28;20048;-62
2023/03/16 04:08:10;;;;;;;13.52;7.50;;;;;;;6.95;65.52;95412.31;5095944;28;20083;-63
2023/03/16 04:10:37;;;;;;;11.70;7.93;;;;;;;6.90;65.70;95416.00;5095870;28;20044;-63
2023/03/16 04:13:05;;;;;;;9.48;7.55;;;;;;;6.91;65.86;95415.94;5095867;28;20044;-64
2023/03/16 04:15:37;;;;;;;10.18;7.68;;;;;;;6.92;65.89;95415.03;5095830;28;20097;-63
2023/03/16 04:18:04;;;;;;;13.70;7.80;;;;;;;6.89;65.78;95429.94;5095748;28;20472;-64
2023/03/16 04:20:31;;;;;;;10.88;7.70;;;;;;;6.92;65.72;95425.44;5095723;28;20058;-64
2023/03/16 04:22:59;;;;;;;10.88;8.23;;;;;;;6.98;65.55;95432.13;5095788;28;20121;-63
2023/03/16 04:25:29;;;;;;;12.40;7.70;;;;;;;6.99;65.44;95426.03;5095692;28;20082;-65
2023/03/16 04:27:57;;;;;;;10.63;7.10;;;;;;;7.02;65.69;95425.91;5095646;28;20084;-62
2023/03/16 04:30:25;;;;;;;11.80;7.13;;;;;;;6.99;65.87;95430.38;5095473;28;20109;-62
2023/03/16 04:32:55;;;;;;;9.95;7.13;;;;;;;6.99;66.09;95426.03;5095432;28;20383;-62
2023/03/16 04:35:22;;;;;;;10.27;8.07;;;;;;;6.99;66.00;95432.97;5095472;28;20090;-63
2023/03/16 04:37:49;;;;;;;11.60;8.05;;;;;;;6.93;66.32;95434.91;5095452;28;20050;-64
2023/03/16 04:40:18;;;;;;;11.75;7.80;;;;;;;6.89;66.26;95440.31;5094787;28;20123;-62
2023/03/16 04:42:50;;;;;;;12.77;7.78;;;;;;;6.83;66.96;95446.59;5095449;28;20067;-62
2023/03/16 04:45:17;;;;;;;10.35;7.97;;;;;;;6.77;66.97;95445.09;5095307;28;20089;-62
2023/03/16 04:47:45;;;;;;;13.20;8.20;;;;;;;6.78;67.17;95451.16;5095371;28;20207;-62
2023/03/16 04:50:14;;;;;;;11.07;8.23;;;;;;;6.83;67.50;95450.06;5094837;28;20052;-63
2023/03/16 04:52:41;;;;;;;10.75;7.50;;;;;;;6.84;67.35;95456.09;5095026;28;20067;-64
2023/03/16 04:55:09;;;;;;;10.02;7.75;;;;;;;6.84;66.85;95461.31;5095122;28;20528;-63
2023/03/16 04:57:38;;;;;;;11.63;7.88;;;;;;;6.91;66.99;95461.88;5094972;28;20135;-63
2023/03/16 05:00:10;;;;;;;12.43;7.07;;;;;;;6.98;66.66;95465.09;5094917;28;20048;-64
2023/03/16 05:02:38;;;;;;;12.18;7.30;;;;;;;7.05;66.47;95471.75;5094838;28;20093;-64
2023/03/16 05:05:06;;;;;;;8.95;6.38;;;;;;;7.05;66.28;95475.16;5094895;28;20047;-64
2023/03/16 05:07:35;;;;;;;6.45;5.75;;;;;;;7.06;65.78;95476.88;5094712;28;20045;-64
2023/03/16 05:10:02;;;;;;;7.82;6.10;;;;;;;7.05;66.25;95480.38;5094702;28;20044;-63
2023/03/16 05:12:29;;;;;;;7.28;5.32;;;;;;;6.96;66.81;95480.75;5094806;28;20458;-63
2023/03/16 05:14:57;;;;;;;6.35;5.05;;;;;;;6.93;66.32;95486.09;5094601;28;20052;-65
2023/03/16 05:17:25;;;;;;;4.75;3.38;;;;;;;6.91;65.78;95485.28;5094571;28;20051;-64
2023/03/16 05:19:52;;;;;;;4.10;3.70;;;;;;;6.90;65.60;95494.84;5094556;28;20121;-65
2023/03/16 05:22:19;;;;;;;4.53;3.53;;;;;;;6.90;65.92;95489.66;5094533;28;20048;-64
2023/03/16 05:24:48;;;;;;;4.60;3.63;;;;;;;6.94;65.37;95491.22;5094533;28;20143;-65
2023/03/16 05:27:15;;;;;;;4.45;3.55;;;;;;;6.97;65.69;95498.03;5094460;28;20127;-64
2023/03/16 05:29:45;;;;;;;4.70;3.03;;;;;;;7.03;65.35;95503.00;5094484;28;20044;-62
2023/03/16 05:32:12;;;;;;;3.15;2.85;;;;;;;6.95;64.93;95500.72;5094345;28;20497;-63
2023/03/16 05:34:42;;;;;;;4.93;2.83;;;;;;;6.97;64.23;95505.84;5094293;28;20482;-63
2023/03/16 05:37:09;;;;;;;3.17;2.85;;;;;;;6.93;64.20;95506.88;5094432;28;20444;-65
2023/03/16 05:39:37;;;;;;;5.97;3.00;;;;;;;6.95;64.24;95505.91;5094291;28;20080;-63
2023/03/16 05:42:06;;;;;;;5.25;3.00;;;;;;;6.92;63.64;95513.81;5094363;28;20051;-65
2023/03/16 05:44:34;;;;;;;4.05;3.00;;;;;;;6.93;64.68;95512.91;5094291;28;20158;-64
2023/03/16 05:47:01;;;;;;;4.25;2.80;;;;;;;6.95;64.12;95524.09;5094157;28;20070;-65
2023/03/16 05:49:31;;;;;;;3.22;2.67;;;;;;;7.01;64.37;95528.22;5093684;28;20141;-64
2023/03/16 05:51:58;;;;;;;3.15;2.50;;;;;;;7.05;66.02;95532.38;5093110;28;20062;-64
2023/03/16 05:54:25;;;;;;;3.75;2.88;;;;;;;7.03;65.80;95533.34;5093987;28;20051;-64
2023/03/16 05:56:53;;;;;;;4.32;3.70;;;;;;;7.03;65.77;95534.22;5093875;28;20498;-65
2023/03/16 05:59:23;;;;;;;4.15;3.72;;;;;;;7.00;65.56;95534.31;5093837;28;20055;-65
2023/03/16 06:01:50;;;;;;;4.97;4.28;;;;;;;7.05;65.60;95544.56;5093830;28;20074;-64
2023/03/16 06:04:17;;;;;;;8.35;5.70;;;;;;;7.05;65.46;95545.38;5093686;28;20101;-64
2023/03/16 06:06:44;;;;;;;8.27;6.00;;;;;;;7.10;65.76;95536.56;5093742;28;20094;-64
2023/03/16 06:09:12;;;;;;;10.65;6.18;;;;;;;6.91;63.88;95543.34;5093687;28;20051;-64
2023/03/16 06:11:39;;;;;;;7.43;5.90;;;;;;;6.89;64.06;95546.91;5093627;28;20490;-65
2023/03/16 06:14:06;;;;;;;7.28;5.47;;;;;;;6.94;64.24;95550.16;5093121;28;20048;-64
2023/03/16 06:16:35;;;;;;;6.93;5.07;;;;;;;6.89;63.61;95559.91;5093637;28;20127;-65
2023/03/16 06:19:02;;;;;;;6.03;5.07;;;;;;;6.82;63.76;95565.34;5093559;28;20128;-64
2023/03/16 06:21:29;;;;;;;11.90;5.68;;;;;;;6.78;64.57;95571.56;5093485;28;20574;-64
2023/03/16 06:24:08;;;;;;;7.07;5.78;;;;;;;6.81;64.43;95570.59;5093452;28;20047;-64
2023/03/16 06:26:35;;;;;;;7.45;5.47;;;;;;;6.80;64.79;95571.50;5093539;28;20043;-64
2023/03/16 06:29:03;;;;;;;6.80;5.20;;;;;;;6.81;65.04;95581.84;5093445;28;20060;-65
2023/03/16 06:31:30;;;;;;;7.38;5.55;;;;;;;6.90;64.20;95579.81;5093360;28;20110;-65
2023/03/16 06:33:59;;;;;;;8.23;5.40;;;;;;;6.92;64.45;95580.56;5093341;28;20044;-64
2023/03/16 06:36:26;;;;;;;8.38;5.78;;;;;;;6.92;64.44;95580.56;5093412;28;20072;-65
2023/03/16 06:38:53;;;;;;;8.15;6.57;;;;;;;6.83;65.00;95586.97;5093195;28;20083;-65
2023/03/16 06:41:20;;;;;;;6.53;5.70;;;;;;;6.91;65.37;95597.09;5093246;28;20123;-64
2023/03/16 06:43:48;;;;;;;7.22;5.85;;;;;;;6.99;65.25;95592.44;5093212;28;20044;-66
2023/03/16 06:46:15;;;;;;;8.93;6.60;;;;;;;7.02;65.15;95594.06;5093080;28;20055;-63
2023/03/16 06:48:42;;;;;;;12.57;6.28;;;;;;;7.04;65.05;95605.25;5093252;28;20083;-66
2023/03/16 06:51:10;;;;;;;7.20;6.30;;;;;;;7.08;65.22;95597.28;5092945;28;20120;-64
2023/03/16 06:53:37;;;;;;;12.15;7.93;;;;;;;7.15;65.05;95607.44;5093021;28;20555;-65
2023/03/16 06:56:05;;;;;;;8.93;6.65;;;;;;;7.20;65.98;95608.13;5093063;28;20409;-65
2023/03/16 06:58:32;;;;;;;8.55;7.07;;;;;;;7.27;66.21;95619.97;5092972;28;20047;-63
2023/03/16 07:01:02;;;;;;;10.05;6.88;;;;;;;7.31;66.03;95624.13;5092997;28;20125;-64
2023/03/16 07:03:29;;;;;;;8.52;6.95;;;;;;;7.37;66.34;95624.81;5095402;28;20077;-65
2023/03/16 07:05:56;;;;;;;9.95;7.07;;;;;;;7.42;66.18;95628.06;5097175;28;20044;-64
2023/03/16 07:08:25;;;;;;;9.52;6.85;;;;;;;7.44;66.52;95634.91;5097193;28;20043;-63
2023/03/16 07:10:53;;;;;;;11.98;6.85;;;;;;;7.37;65.62;95630.03;5097159;28;20079;-63
2023/03/16 07:13:20;;;;;;;10.05;7.43;;;;;;;7.49;66.38;95639.09;5097076;28;20048;-64
2023/03/16 07:15:51;;;;;;;8.63;6.93;;;;;;;7.62;66.87;95635.09;5097048;28;20052;-64
2023/03/16 07:18:18;;;;;;;10.25;6.95;;;;;;;7.71;66.95;95633.84;5097071;28;20044;-64
2023/03/16 07:20:45;;;;;;;7.30;5.80;;;;;;;7.68;65.35;95633.97;5096993;28;20044;-65
2023/03/16 07:23:12;;;;;;;5.47;4.25;;;;;;;7.66;64.00;95638.41;5096860;28;20055;-65
2023/03/16 07:25:43;;;;;;;4.57;4.05;;;;;;;7.59;64.71;95638.63;5096822;28;20055;-63
2023/03/16 07:28:10;;;;;;;;;;;;;;;7.49;64.28;95649.50;5097239;28;20482;-65
2023/03/16 07:30:37;;;;;;;9.43;5.05;;;;;;;7.42;64.87;95643.69;5096729;28;19920;-62
2023/03/16 07:33:05;;;;;;;5.88;4.50;;;;;;;7.48;65.18;95647.78;5096555;28;20052;-64
2023/03/16 07:35:32;;;;;;;5.95;4.85;;;;;;;7.52;65.18;95646.75;5096589;28;20093;-65
2023/03/16 07:38:01;;;;;;;7.50;4.28;;;;;;;7.57;65.24;95652.63;5096583;28;20044;-63
2023/03/16 07:40:28;;;;;;;4.50;3.90;;;;;;;7.66;64.35;95659.22;5096607;28;20043;-64
2023/03/16 07:42:57;;;;;;;6.70;4.78;;;;;;;7.63;64.22;95656.72;5096470;28;20451;-64
2023/03/16 07:45:25;;;;;;;6.85;5.00;;;;;;;7.69;64.05;95659.94;5096394;28;20512;-65
2023/03/16 07:47:52;;;;;;;5.43;3.80;;;;;;;7.75;63.18;95660.59;5096336;28;20079;-62
2023/03/16 07:50:21;;;;;;;7.47;4.82;;;;;;;7.80;62.73;95662.09;5096121;28;20052;-65
2023/03/16 07:52:48;;;;;;;8.35;4.68;;;;;;;7.87;64.30;95664.44;5096282;28;20048;-65
2023/03/16 07:55:16;;;;;;;7.97;4.68;;;;;;;8.09;64.68;95661.81;5096327;28;20044;-64
2023/03/16 07:57:46;;;;;;;5.65;4.97;;;;;;;8.29;63.99;95665.31;5096230;28;20045;-63
2023/03/16 08:00:19;;;;;;;5.60;4.70;;;;;;;8.45;64.18;95671.56;5096136;28;20520;-64
2023/03/16 08:02:46;;;;;;;5.80;4.60;;;;;;;8.67;63.19;95672.44;5096086;28;20040;-62
2023/03/16 08:05:14;;;;;;;6.13;5.40;;;;;;;8.76;63.67;95677.22;5096084;28;20410;-63
2023/03/16 08:07:41;;;;;;;5.57;4.88;;;;;;;8.93;62.49;95679.06;5095998;28;20047;-63
2023/03/16 08:10:10;;;;;;;7.07;5.35;;;;;;;9.07;62.75;95678.47;5096001;28;20044;-64
2023/03/16 08:12:37;;;;;;;6.30;4.97;;;;;;;9.28;61.23;95680.13;5095948;28;20071;-64
2023/03/16 08:15:06;;;;;;;6.45;4.82;;;;;;;9.38;60.77;95681.41;5094874;28;20047;-65
2023/03/16 08:17:35;;;;;;;7.45;6.13;;;;;;;9.51;59.72;95686.03;5095894;28;20568;-63
2023/03/16 08:20:05;;;;;;;8.10;5.50;;;;;;;9.64;59.39;95686.31;5095999;28;20486;-64
2023/03/16 08:22:35;;;;;;;6.35;5.60;;;;;;;9.44;59.04;95682.88;5095775;28;20072;-64
2023/03/16 08:25:03;;;;;;;5.63;4.57;;;;;;;9.34;57.35;95687.69;5095758;28;20079;-63
2023/03/16 08:27:30;;;;;;;6.13;5.13;;;;;;;9.50;56.31;95687.81;5095793;28;20379;-64
2023/03/16 08:30:03;;;;;;;6.43;4.88;;;;;;;9.71;57.94;95690.31;5095576;28;20052;-62
2023/03/16 08:32:30;;;;;;;7.18;5.60;;;;;;;9.84;57.66;95698.38;5095560;28;20525;-65
2023/03/16 08:34:59;;;;;;;7.15;5.68;;;;;;;9.90;57.69;95703.31;5095573;28;20448;-64
2023/03/16 08:37:27;;;;;;;6.75;5.15;;;;;;;9.96;57.16;95702.16;5095565;28;20128;-62
2023/03/16 08:39:54;;;;;;;5.70;4.90;;;;;;;10.03;56.12;95692.28;5095444;28;20109;-64
2023/03/16 08:42:22;;;;;;;6.30;4.93;;;;;;;10.07;55.73;95702.50;5095562;28;20044;-64
2023/03/16 08:44:49;;;;;;;5.15;4.65;;;;;;;9.98;56.25;95697.72;5095347;28;20047;-63
2023/03/16 08:47:18;;;;;;;7.68;4.53;;;;;;;9.82;56.45;95703.69;5095353;28;20059;-63
2023/03/16 08:49:45;;;;;;;6.22;4.55;;;;;;;9.73;56.44;95699.75;5094895;28;20131;-65
2023/03/16 08:52:14;;;;;;;7.45;5.18;;;;;;;9.69;55.88;95698.22;5094998;28;20056;-65
2023/03/16 08:54:42;;;;;;;8.95;4.88;;;;;;;9.78;56.49;95709.16;5095150;28;20091;-63
2023/03/16 08:57:11;;;;;;;5.75;5.15;;;;;;;9.94;56.21;95707.47;5095012;28;20048;-65
2023/03/16 08:59:38;;;;;;;7.47;4.72;;;;;;;10.11;55.32;95705.78;5094985;28;20052;-64
2023/03/16 09:02:05;;;;;;;5.55;4.90;;;;;;;10.17;55.92;95704.66;5094935;28;20052;-64
2023/03/16 09:04:32;;;;;;;6.25;4.97;;;;;;;10.11;54.82;95704.03;5094920;28;20074;-64
2023/03/16 09:07:00;;;;;;;5.75;5.18;;;;;;;9.82;55.37;95716.75;5094802;28;20478;-64
2023/03/16 09:09:29;;;;;;;5.10;4.60;;;;;;;9.67;57.32;95710.50;5094918;28;20088;-62
2023/03/16 09:11:57;;;;;;;5.75;4.75;;;;;;;9.60;56.66;95707.34;5094740;28;20067;-65
2023/03/16 09:14:25;;;;;;;5.55;4.70;;;;;;;9.56;56.97;95710.16;5094786;28;20130;-64
2023/03/16 09:16:52;;;;;;;7.10;5.55;;;;;;;9.23;57.34;95717.75;5094619;28;20055;-65
2023/03/16 09:19:20;;;;;;;7.00;5.35;;;;;;;9.11;58.08;95718.28;5094519;28;20044;-64
2023/03/16 09:21:47;;;;;;;5.05;4.50;;;;;;;8.98;58.45;95712.78;5094545;28;20072;-65
2023/03/16 09:24:14;;;;;;;7.03;5.35;;;;;;;8.99;58.45;95719.69;5094442;28;20048;-64
2023/03/16 09:26:44;;;;;;;6.15;5.20;;;;;;;8.90;58.90;95718.34;5094397;28;20040;-64
2023/03/16 09:29:11;;;;;;;9.98;6.20;;;;;;;8.88;58.89;95725.38;5094496;28;20051;-65
2023/03/16 09:31:39;;;;;;;9.60;4.60;;;;;;;8.78;59.37;95726.69;5094281;28;20052;-64
2023/03/16 09:34:06;;;;;;;6.95;5.25;;;;;;;8.81;58.73;95730.03;5094303;28;20049;-63
2023/03/16 09:36:34;;;;;;;6.53;5.45;;;;;;;8.84;59.25;95731.63;5094107;28;20044;-62
2023/03/16 09:39:02;;;;;;;8.18;5.72;;;;;;;8.81;58.75;95734.38;5094317;28;20052;-63
2023/03/16 09:41:40;;;;;;;9.13;5.25;;;;;;;8.88;59.08;95737.59;5094118;28;20095;-64
2023/03/16 09:44:25;;;;;;;10.43;6.57;;;;;;;8.85;58.19;95739.41;5092871;28;20070;-64
2023/03/16 09:46:53;;;;;;;9.85;6.45;;;;;;;8.84;58.36;95734.25;5094169;28;20040;-65
2023/03/16 09:49:25;;;;;;;9.07;6.40;;;;;;;8.88;58.05;95746.22;5093968;28;20052;-64
2023/03/16 09:51:58;;;;;;;7.40;6.03;;;;;;;8.82;59.22;95754.34;5093970;28;20406;-64
2023/03/16 09:54:34;;;;;;;7.05;5.47;;;;;;;8.88;58.76;95745.41;5093986;28;20048;-65
2023/03/16 09:57:04;;;;;;;7.32;5.53;;;;;;;8.90;55.99;95757.47;5094063;28;20127;-64
2023/03/16 09:59:32;;;;;;;9.88;6.38;;;;;;;8.89;56.72;95752.31;5093996;28;20450;-64
2023/03/16 10:02:17;;;;;;;7.30;6.15;;;;;;;8.81;56.94;95753.50;5093967;28;20052;-65
2023/03/16 10:04:57;;;;;;;7.88;5.90;;;;;;;8.91;58.22;95758.31;5093797;28;20087;-62
2023/03/16 10:07:36;;;;;;;7.45;5.72;;;;;;;8.88;57.50;95761.06;5093929;28;20052;-65
2023/03/16 10:10:16;;;;;;;7.38;5.57;;;;;;;8.92;58.24;95754.78;5093754;28;20051;-64
2023/03/16 10:12:49;;;;;;;6.07;5.20;;;;;;;8.98;57.56;95760.56;5093652;28;20482;-62
2023/03/16 10:15:21;;;;;;;7.25;5.72;;;;;;;9.06;56.69;95760.22;5093728;28;20044;-63
2023/03/16 10:17:53;;;;;;;8.18;6.25;;;;;;;8.95;56.59;95765.94;5093587;28;20040;-62
2023/03/16 10:20:23;;;;;;;5.97;4.47;;;;;;;9.00;56.32;95767.50;5093598;28;20044;-64
2023/03/16 10:22:52;;;;;;;5.93;4.70;;;;;;;8.91;56.24;95771.34;5093515;28;20047;-63
2023/03/16 10:25:25;;;;;;;5.72;4.20;;;;;;;8.85;56.74;95764.63;5093429;28;20321;-62
2023/03/16 10:27:53;;;;;;;6.60;4.68;;;;;;;8.83;56.60;95771.69;5093455;28;20048;-64
2023/03/16 10:30:24;;;;;;;4.65;4.13;;;;;;;8.79;57.10;95768.34;5093315;28;20123;-64
2023/03/16 10:32:52;;;;;;;5.07;4.15;;;;;;;8.83;57.03;95769.06;5093227;28;20048;-64
2023/03/16 10:35:41;;;;;;;8.57;4.68;;;;;;;8.80;56.74;95775.28;5093302;28;20048;-65
2023/03/16 10:38:09;;;;;;;5.75;4.13;;;;;;;8.80;56.63;95782.25;5092878;28;20142;-64
2023/03/16 10:40:38;;;;;;;7.50;4.88;;;;;;;8.84;57.11;95774.22;5093305;28;20486;-64
2023/03/16 10:43:09;;;;;;;4.97;4.20;;;;;;;8.90;55.79;95777.47;5093239;28;20040;-63
2023/03/16 10:45:37;;;;;;;7.85;5.65;;;;;;;8.98;56.01;95784.03;5093271;28;20459;-62
2023/03/16 10:48:09;;;;;;;8.73;5.43;;;;;;;9.14;56.45;95786.00;5093262;28;20044;-63
2023/03/16 10:50:36;;;;;;;6.18;4.40;;;;;;;9.34;56.25;95784.25;5093031;28;20117;-64
2023/03/16 10:53:04;;;;;;;4.93;3.78;;;;;;;9.33;55.50;95783.41;5093080;28;20052;-64
2023/03/16 10:55:40;;;;;;;4.00;3.45;;;;;;;9.34;56.34;95782.47;5093073;28;20083;-63
2023/03/16 10:58:09;;;;;;;4.93;2.90;;;;;;;9.16;55.79;95784.16;5093166;28;20048;-63
2023/03/16 11:00:42;;;;;;;4.53;3.00;;;;;;;9.08;55.85;95789.72;5093179;28;20079;-64
2023/03/16 11:03:22;;;;;;;4.53;3.05;;;;;;;8.76;56.89;95783.28;5093165;28;20105;-63
2023/03/16 11:05:57;;;;;;;3.67;2.80;;;;;;;8.59;57.85;95785.72;5093148;28;20056;-63
2023/03/16 11:08:26;;;;;;;4.13;3.05;;;;;;;8.48;58.65;95785.25;5093070;28;20048;-64
2023/03/16 11:10:57;;;;;;;4.38;2.90;;;;;;;8.46;57.50;95785.34;5092952;28;20052;-64
2023/03/16 11:13:28;;;;;;;3.20;2.90;;;;;;;8.54;58.88;95785.03;5092924;28;20048;-64
2023/03/16 11:16:01;;;;;;;3.55;2.60;;;;;;;8.55;57.87;95784.13;5093068;28;20052;-62
2023/03/16 11:18:32;;;;;;;3.35;2.67;;;;;;;8.64;56.92;95785.50;5092882;28;20048;-63
2023/03/16 11:21:02;;;;;;;;;;;;;;;8.69;57.68;95787.91;5093320;28;20391;-64
2023/03/16 11:23:34;;;;;;;4.28;3.05;;;;;;;8.77;57.47;95783.22;5092869;28;20320;-64
2023/03/16 11:26:04;;;;;;;3.80;2.53;;;;;;;8.95;57.06;95783.34;5092801;28;20051;-64
2023/03/16 11:28:38;;;;;;;4.53;2.47;;;;;;;9.05;57.00;95773.34;5093020;28;20044;-63
2023/03/16 11:31:23;;;;;;;4.55;3.58;;;;;;;9.13;56.24;95784.31;5092762;28;20497;-63
2023/03/16 11:33:50;;;;;;;4.20;2.53;;;;;;;9.06;56.71;95778.50;5092645;28;20516;-63
2023/03/16 11:36:40;;;;;;;9.38;2.97;;;;;;;9.03;56.43;95780.41;5092775;28;20048;-63
2023/03/16 11:39:15;;;;;;;2.17;1.80;;;;;;;9.00;57.53;95776.16;5092825;28;20051;-64
2023/03/16 11:41:54;;;;;;;2.40;1.90;;;;;;;8.93;56.71;95783.41;5092819;28;20368;-64
2023/03/16 11:44:32;;;;;;;2.50;1.90;;;;;;;8.75;57.89;95774.63;5092624;28;20090;-64
2023/03/16 11:47:07;;;;;;;2.58;1.95;;;;;;;8.48;57.70;95785.25;5092627;28;20044;-64
2023/03/16 11:49:48;;;;;;;3.03;2.10;;;;;;;8.35;58.21;95790.16;5093039;28;20053;-64